sensor_id;sensor_type;location;lat;lon;timestamp;temperature;humidity
7646;DHT22;3864;48.180;14.178;2023-07-20T00:01:55;17.90;99.90
7646;DHT22;3864;48.180;14.178;2023-07-20T00:04:22;17.80;99.90
7646;DHT22;3864;48.180;14.178;2023-07-20T00:06:50;17.80;99.90
7646;DHT22;3864;48.180;14.178;2023-07-20T00:09:19;17.80;99.90
7646;DHT22;3864;48.180;14.178;2023-07-20T00:11:49;17.70;99.90
7646;DHT22;3864;48.180;14.178;2023-07-20T00:14:17;17.70;99.90
7646;DHT22;3864;48.180;14.178;2023-07-20T00:16:45;17.80;99.90
7646;DHT22;3864;48.180;14.178;2023-07-20T00:19:15;17.80;99.90
7646;DHT22;3864;48.180;14.178;2023-07-20T00:21:42;17.90;99.90
7646;DHT22;3864;48.180;14.178;2023-07-20T00:24:09;18.00;99.90
7646;DHT22;3864;48.180;14.178;2023-07-20T00:26:41;18.10;99.90
7646;DHT22;3864;48.180;14.178;2023-07-20T00:29:09;18.10;99.90
7646;DHT22;3864;48.180;14.178;2023-07-20T00:31:36;18.10;99.90
7646;DHT22;3864;48.180;14.178;2023-07-20T00:34:03;18.20;99.90
7646;DHT22;3864;48.180;14.178;2023-07-20T00:36:31;18.40;99.90
7646;DHT22;3864;48.180;14.178;2023-07-20T00:38:58;18.60;99.90
7646;DHT22;3864;48.180;14.178;2023-07-20T00:41:26;18.70;99.90
7646;DHT22;3864;48.180;14.178;2023-07-20T00:43:56;18.70;99.90
7646;DHT22;3864;48.180;14.178;2023-07-20T00:46:24;18.60;99.90
7646;DHT22;3864;48.180;14.178;2023-07-20T00:48:52;18.50;99.90
7646;DHT22;3864;48.180;14.178;2023-07-20T00:51:20;18.40;99.90
7646;DHT22;3864;48.180;14.178;2023-07-20T00:53:48;18.20;99.90
7646;DHT22;3864;48.180;14.178;2023-07-20T00:56:16;18.10;99.90
7646;DHT22;3864;48.180;14.178;2023-07-20T00:58:43;17.90;99.90
7646;DHT22;3864;48.180;14.178;2023-07-20T01:01:12;17.80;99.90
7646;DHT22;3864;48.180;14.178;2023-07-20T01:03:39;17.70;99.90
7646;DHT22;3864;48.180;14.178;2023-07-20T01:06:14;17.70;99.90
7646;DHT22;3864;48.180;14.178;2023-07-20T01:08:51;17.70;99.90
7646;DHT22;3864;48.180;14.178;2023-07-20T01:11:27;17.70;99.90
7646;DHT22;3864;48.180;14.178;2023-07-20T01:13:55;17.70;99.90
7646;DHT22;3864;48.180;14.178;2023-07-20T01:16:24;17.70;99.90
7646;DHT22;3864;48.180;14.178;2023-07-20T01:18:51;17.80;99.90
7646;DHT22;3864;48.180;14.178;2023-07-20T01:21:24;17.80;99.90
7646;DHT22;3864;48.180;14.178;2023-07-20T01:24:13;17.90;99.90
7646;DHT22;3864;48.180;14.178;2023-07-20T01:27:14;18.00;99.90
7646;DHT22;3864;48.180;14.178;2023-07-20T01:30:02;18.10;99.90
7646;DHT22;3864;48.180;14.178;2023-07-20T01:32:33;18.10;99.90
7646;DHT22;3864;48.180;14.178;2023-07-20T01:35:03;18.20;99.90
7646;DHT22;3864;48.180;14.178;2023-07-20T01:37:32;18.20;99.90
7646;DHT22;3864;48.180;14.178;2023-07-20T01:40:01;18.20;99.90
7646;DHT22;3864;48.180;14.178;2023-07-20T01:42:29;18.10;99.90
7646;DHT22;3864;48.180;14.178;2023-07-20T01:44:56;18.10;99.90
7646;DHT22;3864;48.180;14.178;2023-07-20T01:47:23;18.00;99.90
7646;DHT22;3864;48.180;14.178;2023-07-20T01:49:52;18.00;99.90
7646;DHT22;3864;48.180;14.178;2023-07-20T01:52:20;18.00;99.90
7646;DHT22;3864;48.180;14.178;2023-07-20T01:54:47;18.10;99.90
7646;DHT22;3864;48.180;14.178;2023-07-20T01:57:14;18.10;99.90
7646;DHT22;3864;48.180;14.178;2023-07-20T01:59:41;18.20;99.90
7646;DHT22;3864;48.180;14.178;2023-07-20T02:02:09;18.20;99.90
7646;DHT22;3864;48.180;14.178;2023-07-20T02:04:36;18.20;99.90
7646;DHT22;3864;48.180;14.178;2023-07-20T02:07:06;18.30;99.90
7646;DHT22;3864;48.180;14.178;2023-07-20T02:09:33;18.20;99.90
7646;DHT22;3864;48.180;14.178;2023-07-20T02:12:00;18.00;99.90
7646;DHT22;3864;48.180;14.178;2023-07-20T02:14:28;17.90;99.90
7646;DHT22;3864;48.180;14.178;2023-07-20T02:16:55;17.70;99.90
7646;DHT22;3864;48.180;14.178;2023-07-20T02:19:25;17.60;99.90
7646;DHT22;3864;48.180;14.178;2023-07-20T02:21:53;17.40;99.90
7646;DHT22;3864;48.180;14.178;2023-07-20T02:24:22;17.30;99.90
7646;DHT22;3864;48.180;14.178;2023-07-20T02:26:49;17.20;99.90
7646;DHT22;3864;48.180;14.178;2023-07-20T02:29:16;17.10;99.90
7646;DHT22;3864;48.180;14.178;2023-07-20T02:31:43;17.10;99.90
7646;DHT22;3864;48.180;14.178;2023-07-20T02:34:10;17.00;99.90
7646;DHT22;3864;48.180;14.178;2023-07-20T02:36:38;17.00;99.90
7646;DHT22;3864;48.180;14.178;2023-07-20T02:39:05;17.00;99.90
7646;DHT22;3864;48.180;14.178;2023-07-20T02:41:34;17.00;99.90
7646;DHT22;3864;48.180;14.178;2023-07-20T02:44:02;17.00;99.90
7646;DHT22;3864;48.180;14.178;2023-07-20T02:46:29;17.00;99.90
7646;DHT22;3864;48.180;14.178;2023-07-20T02:48:56;17.00;99.90
7646;DHT22;3864;48.180;14.178;2023-07-20T02:51:24;16.90;99.90
7646;DHT22;3864;48.180;14.178;2023-07-20T02:53:51;16.90;99.90
7646;DHT22;3864;48.180;14.178;2023-07-20T02:56:18;17.00;99.90
7646;DHT22;3864;48.180;14.178;2023-07-20T02:58:47;17.00;99.90
7646;DHT22;3864;48.180;14.178;2023-07-20T03:01:14;17.10;99.90
7646;DHT22;3864;48.180;14.178;2023-07-20T03:03:42;17.10;99.90
7646;DHT22;3864;48.180;14.178;2023-07-20T03:06:13;17.20;99.90
7646;DHT22;3864;48.180;14.178;2023-07-20T03:08:40;17.20;99.90
7646;DHT22;3864;48.180;14.178;2023-07-20T03:11:13;17.20;99.90
7646;DHT22;3864;48.180;14.178;2023-07-20T03:13:40;17.20;99.90
7646;DHT22;3864;48.180;14.178;2023-07-20T03:16:09;17.10;99.90
7646;DHT22;3864;48.180;14.178;2023-07-20T03:18:37;17.10;99.90
7646;DHT22;3864;48.180;14.178;2023-07-20T03:21:05;17.10;99.90
7646;DHT22;3864;48.180;14.178;2023-07-20T03:23:33;17.00;99.90
7646;DHT22;3864;48.180;14.178;2023-07-20T03:26:00;17.00;99.90
7646;DHT22;3864;48.180;14.178;2023-07-20T03:28:28;17.00;99.90
7646;DHT22;3864;48.180;14.178;2023-07-20T03:30:55;17.00;99.90
7646;DHT22;3864;48.180;14.178;2023-07-20T03:33:25;17.00;99.90
7646;DHT22;3864;48.180;14.178;2023-07-20T03:35:53;17.00;99.90
7646;DHT22;3864;48.180;14.178;2023-07-20T03:38:21;16.90;99.90
7646;DHT22;3864;48.180;14.178;2023-07-20T03:40:51;16.90;99.90
7646;DHT22;3864;48.180;14.178;2023-07-20T03:43:19;16.90;99.90
7646;DHT22;3864;48.180;14.178;2023-07-20T03:45:47;16.80;99.90
7646;DHT22;3864;48.180;14.178;2023-07-20T03:48:15;16.70;99.90
7646;DHT22;3864;48.180;14.178;2023-07-20T03:50:44;16.70;99.90
7646;DHT22;3864;48.180;14.178;2023-07-20T03:53:12;16.70;99.90
7646;DHT22;3864;48.180;14.178;2023-07-20T03:55:39;16.70;99.90
7646;DHT22;3864;48.180;14.178;2023-07-20T03:58:07;16.70;99.90
7646;DHT22;3864;48.180;14.178;2023-07-20T04:00:35;16.70;99.90
7646;DHT22;3864;48.180;14.178;2023-07-20T04:03:02;16.80;99.90
7646;DHT22;3864;48.180;14.178;2023-07-20T04:05:30;16.80;99.90
7646;DHT22;3864;48.180;14.178;2023-07-20T04:07:59;16.90;99.90
7646;DHT22;3864;48.180;14.178;2023-07-20T04:10:26;16.90;99.90
7646;DHT22;3864;48.180;14.178;2023-07-20T04:12:53;17.00;99.90
7646;DHT22;3864;48.180;14.178;2023-07-20T04:15:21;17.10;99.90
7646;DHT22;3864;48.180;14.178;2023-07-20T04:17:48;17.20;99.90
7646;DHT22;3864;48.180;14.178;2023-07-20T04:20:15;17.30;99.90
7646;DHT22;3864;48.180;14.178;2023-07-20T04:22:43;17.40;99.90
7646;DHT22;3864;48.180;14.178;2023-07-20T04:25:12;17.50;99.90
7646;DHT22;3864;48.180;14.178;2023-07-20T04:27:39;17.60;99.90
7646;DHT22;3864;48.180;14.178;2023-07-20T04:30:08;17.70;99.90
7646;DHT22;3864;48.180;14.178;2023-07-20T04:32:37;17.70;99.90
7646;DHT22;3864;48.180;14.178;2023-07-20T04:35:09;17.80;99.90
7646;DHT22;3864;48.180;14.178;2023-07-20T04:37:37;17.90;99.90
7646;DHT22;3864;48.180;14.178;2023-07-20T04:40:15;18.00;99.90
7646;DHT22;3864;48.180;14.178;2023-07-20T04:42:43;18.20;99.90
7646;DHT22;3864;48.180;14.178;2023-07-20T04:45:10;18.40;99.90
7646;DHT22;3864;48.180;14.178;2023-07-20T04:47:38;18.50;99.90
7646;DHT22;3864;48.180;14.178;2023-07-20T04:50:06;18.70;99.90
7646;DHT22;3864;48.180;14.178;2023-07-20T04:52:35;18.90;99.90
7646;DHT22;3864;48.180;14.178;2023-07-20T04:55:03;19.00;99.90
7646;DHT22;3864;48.180;14.178;2023-07-20T04:57:32;19.10;99.90
7646;DHT22;3864;48.180;14.178;2023-07-20T05:00:00;19.20;99.90
7646;DHT22;3864;48.180;14.178;2023-07-20T05:02:27;19.10;99.90
7646;DHT22;3864;48.180;14.178;2023-07-20T05:04:54;19.10;99.90
7646;DHT22;3864;48.180;14.178;2023-07-20T05:07:22;19.10;99.90
7646;DHT22;3864;48.180;14.178;2023-07-20T05:09:49;19.10;99.90
7646;DHT22;3864;48.180;14.178;2023-07-20T05:12:16;19.10;99.90
7646;DHT22;3864;48.180;14.178;2023-07-20T05:14:45;19.20;99.90
7646;DHT22;3864;48.180;14.178;2023-07-20T05:17:13;19.20;99.90
7646;DHT22;3864;48.180;14.178;2023-07-20T05:19:40;19.30;99.90
7646;DHT22;3864;48.180;14.178;2023-07-20T05:22:07;20.40;99.90
7646;DHT22;3864;48.180;14.178;2023-07-20T05:24:36;21.50;99.90
7646;DHT22;3864;48.180;14.178;2023-07-20T05:27:04;22.70;99.90
7646;DHT22;3864;48.180;14.178;2023-07-20T05:29:31;24.20;99.90
7646;DHT22;3864;48.180;14.178;2023-07-20T05:32:01;24.30;99.90
7646;DHT22;3864;48.180;14.178;2023-07-20T05:34:28;23.10;99.90
7646;DHT22;3864;48.180;14.178;2023-07-20T05:37:10;22.10;99.90
7646;DHT22;3864;48.180;14.178;2023-07-20T05:39:38;21.70;99.90
7646;DHT22;3864;48.180;14.178;2023-07-20T05:42:05;21.70;99.90
7646;DHT22;3864;48.180;14.178;2023-07-20T05:44:32;22.90;99.90
7646;DHT22;3864;48.180;14.178;2023-07-20T05:47:01;23.20;99.90
7646;DHT22;3864;48.180;14.178;2023-07-20T05:49:30;22.50;99.90
7646;DHT22;3864;48.180;14.178;2023-07-20T05:51:59;22.20;99.90
7646;DHT22;3864;48.180;14.178;2023-07-20T05:54:27;21.50;99.90
7646;DHT22;3864;48.180;14.178;2023-07-20T05:56:54;21.20;99.90
7646;DHT22;3864;48.180;14.178;2023-07-20T05:59:21;21.10;99.90
7646;DHT22;3864;48.180;14.178;2023-07-20T06:01:50;20.80;99.90
7646;DHT22;3864;48.180;14.178;2023-07-20T06:04:18;20.70;99.90
7646;DHT22;3864;48.180;14.178;2023-07-20T06:06:46;20.90;99.90
7646;DHT22;3864;48.180;14.178;2023-07-20T06:09:13;21.00;99.90
7646;DHT22;3864;48.180;14.178;2023-07-20T06:11:40;21.10;99.90
7646;DHT22;3864;48.180;14.178;2023-07-20T06:14:08;21.40;99.90
7646;DHT22;3864;48.180;14.178;2023-07-20T06:16:35;21.60;99.90
7646;DHT22;3864;48.180;14.178;2023-07-20T06:19:02;21.70;99.90
7646;DHT22;3864;48.180;14.178;2023-07-20T06:21:32;21.60;99.90
7646;DHT22;3864;48.180;14.178;2023-07-20T06:23:59;21.30;99.90
7646;DHT22;3864;48.180;14.178;2023-07-20T06:26:26;21.00;99.90
7646;DHT22;3864;48.180;14.178;2023-07-20T06:28:54;21.00;99.90
7646;DHT22;3864;48.180;14.178;2023-07-20T06:31:21;20.90;99.90
7646;DHT22;3864;48.180;14.178;2023-07-20T06:33:48;20.90;99.90
7646;DHT22;3864;48.180;14.178;2023-07-20T06:36:17;20.90;99.90
7646;DHT22;3864;48.180;14.178;2023-07-20T06:38:46;21.00;99.90
7646;DHT22;3864;48.180;14.178;2023-07-20T06:41:13;21.10;99.90
7646;DHT22;3864;48.180;14.178;2023-07-20T06:43:40;21.30;99.90
7646;DHT22;3864;48.180;14.178;2023-07-20T06:46:08;21.70;99.90
7646;DHT22;3864;48.180;14.178;2023-07-20T06:48:35;21.80;99.90
7646;DHT22;3864;48.180;14.178;2023-07-20T06:51:02;21.80;99.90
7646;DHT22;3864;48.180;14.178;2023-07-20T06:53:30;22.00;99.90
7646;DHT22;3864;48.180;14.178;2023-07-20T06:55:59;22.20;99.90
7646;DHT22;3864;48.180;14.178;2023-07-20T06:58:27;22.30;99.90
7646;DHT22;3864;48.180;14.178;2023-07-20T07:00:54;22.80;99.90
7646;DHT22;3864;48.180;14.178;2023-07-20T07:03:21;23.10;99.90
7646;DHT22;3864;48.180;14.178;2023-07-20T07:05:48;22.70;99.90
7646;DHT22;3864;48.180;14.178;2023-07-20T07:08:16;22.50;99.90
7646;DHT22;3864;48.180;14.178;2023-07-20T07:10:43;22.40;99.90
7646;DHT22;3864;48.180;14.178;2023-07-20T07:13:12;22.30;99.90
7646;DHT22;3864;48.180;14.178;2023-07-20T07:15:39;22.20;99.90
7646;DHT22;3864;48.180;14.178;2023-07-20T07:18:06;22.10;99.90
7646;DHT22;3864;48.180;14.178;2023-07-20T07:20:34;23.80;99.90
7646;DHT22;3864;48.180;14.178;2023-07-20T07:23:02;24.40;99.90
7646;DHT22;3864;48.180;14.178;2023-07-20T07:25:32;24.40;99.90
7646;DHT22;3864;48.180;14.178;2023-07-20T07:28:00;25.50;99.90
7646;DHT22;3864;48.180;14.178;2023-07-20T07:30:29;27.40;99.90
7646;DHT22;3864;48.180;14.178;2023-07-20T07:32:56;27.80;99.90
7646;DHT22;3864;48.180;14.178;2023-07-20T07:35:23;26.10;99.90
7646;DHT22;3864;48.180;14.178;2023-07-20T07:37:51;25.00;99.90
7646;DHT22;3864;48.180;14.178;2023-07-20T07:40:18;24.80;99.90
7646;DHT22;3864;48.180;14.178;2023-07-20T07:42:45;25.40;99.90
7646;DHT22;3864;48.180;14.178;2023-07-20T07:45:13;25.90;99.90
7646;DHT22;3864;48.180;14.178;2023-07-20T07:47:42;25.20;99.90
7646;DHT22;3864;48.180;14.178;2023-07-20T07:50:10;25.60;99.90
7646;DHT22;3864;48.180;14.178;2023-07-20T07:52:37;26.00;99.90
7646;DHT22;3864;48.180;14.178;2023-07-20T07:55:06;25.60;99.90
7646;DHT22;3864;48.180;14.178;2023-07-20T07:57:33;25.60;99.90
7646;DHT22;3864;48.180;14.178;2023-07-20T08:00:00;25.50;99.90
7646;DHT22;3864;48.180;14.178;2023-07-20T08:02:28;25.20;99.90
7646;DHT22;3864;48.180;14.178;2023-07-20T08:04:57;24.70;99.90
7646;DHT22;3864;48.180;14.178;2023-07-20T08:07:26;24.20;99.90
7646;DHT22;3864;48.180;14.178;2023-07-20T08:09:53;23.80;99.90
7646;DHT22;3864;48.180;14.178;2023-07-20T08:12:21;23.30;99.90
7646;DHT22;3864;48.180;14.178;2023-07-20T08:14:48;23.20;99.90
7646;DHT22;3864;48.180;14.178;2023-07-20T08:17:15;22.70;99.90
7646;DHT22;3864;48.180;14.178;2023-07-20T08:19:43;22.70;99.90
7646;DHT22;3864;48.180;14.178;2023-07-20T08:22:12;23.00;99.90
7646;DHT22;3864;48.180;14.178;2023-07-20T08:24:40;23.10;99.90
7646;DHT22;3864;48.180;14.178;2023-07-20T08:27:08;23.50;99.90
7646;DHT22;3864;48.180;14.178;2023-07-20T08:29:35;24.10;99.90
7646;DHT22;3864;48.180;14.178;2023-07-20T08:32:03;24.70;99.90
7646;DHT22;3864;48.180;14.178;2023-07-20T08:34:31;25.20;99.90
7646;DHT22;3864;48.180;14.178;2023-07-20T08:36:58;25.60;99.90
7646;DHT22;3864;48.180;14.178;2023-07-20T08:39:28;26.30;99.90
7646;DHT22;3864;48.180;14.178;2023-07-20T08:41:55;26.00;99.90
7646;DHT22;3864;48.180;14.178;2023-07-20T08:44:24;25.90;99.90
7646;DHT22;3864;48.180;14.178;2023-07-20T08:46:53;26.20;99.90
7646;DHT22;3864;48.180;14.178;2023-07-20T08:49:21;26.30;99.90
7646;DHT22;3864;48.180;14.178;2023-07-20T08:51:48;26.10;99.90
7646;DHT22;3864;48.180;14.178;2023-07-20T08:54:16;26.20;99.90
7646;DHT22;3864;48.180;14.178;2023-07-20T08:56:46;26.00;99.90
7646;DHT22;3864;48.180;14.178;2023-07-20T08:59:15;25.70;99.90
7646;DHT22;3864;48.180;14.178;2023-07-20T09:01:44;25.30;99.90
7646;DHT22;3864;48.180;14.178;2023-07-20T09:04:12;25.30;99.90
7646;DHT22;3864;48.180;14.178;2023-07-20T09:06:39;25.40;99.90
7646;DHT22;3864;48.180;14.178;2023-07-20T09:09:07;26.00;99.90
7646;DHT22;3864;48.180;14.178;2023-07-20T09:11:34;26.50;99.90
7646;DHT22;3864;48.180;14.178;2023-07-20T09:14:06;26.50;99.90
7646;DHT22;3864;48.180;14.178;2023-07-20T09:16:38;26.60;99.90
7646;DHT22;3864;48.180;14.178;2023-07-20T09:19:14;27.00;99.90
7646;DHT22;3864;48.180;14.178;2023-07-20T09:21:44;27.60;99.90
7646;DHT22;3864;48.180;14.178;2023-07-20T09:24:12;27.80;99.90
7646;DHT22;3864;48.180;14.178;2023-07-20T09:26:43;28.30;99.90
7646;DHT22;3864;48.180;14.178;2023-07-20T09:29:12;28.60;99.90
7646;DHT22;3864;48.180;14.178;2023-07-20T09:31:39;28.80;99.90
7646;DHT22;3864;48.180;14.178;2023-07-20T09:34:07;29.10;99.90
7646;DHT22;3864;48.180;14.178;2023-07-20T09:36:35;29.00;99.90
7646;DHT22;3864;48.180;14.178;2023-07-20T09:39:03;28.10;99.90
7646;DHT22;3864;48.180;14.178;2023-07-20T09:41:39;27.90;99.90
7646;DHT22;3864;48.180;14.178;2023-07-20T09:44:07;28.40;99.90
7646;DHT22;3864;48.180;14.178;2023-07-20T09:46:45;27.60;99.90
7646;DHT22;3864;48.180;14.178;2023-07-20T09:49:12;27.80;99.90
7646;DHT22;3864;48.180;14.178;2023-07-20T09:51:40;27.60;99.90
7646;DHT22;3864;48.180;14.178;2023-07-20T09:54:07;27.40;99.90
7646;DHT22;3864;48.180;14.178;2023-07-20T09:56:35;26.60;99.90
7646;DHT22;3864;48.180;14.178;2023-07-20T09:59:04;27.00;99.90
7646;DHT22;3864;48.180;14.178;2023-07-20T10:01:33;27.70;99.90
7646;DHT22;3864;48.180;14.178;2023-07-20T10:04:03;27.80;99.90
7646;DHT22;3864;48.180;14.178;2023-07-20T10:06:33;27.70;99.90
7646;DHT22;3864;48.180;14.178;2023-07-20T10:09:03;28.00;99.90
7646;DHT22;3864;48.180;14.178;2023-07-20T10:11:35;27.60;99.90
7646;DHT22;3864;48.180;14.178;2023-07-20T10:14:04;27.30;99.90
7646;DHT22;3864;48.180;14.178;2023-07-20T10:16:40;26.80;99.90
7646;DHT22;3864;48.180;14.178;2023-07-20T10:19:22;26.90;99.90
7646;DHT22;3864;48.180;14.178;2023-07-20T10:22:02;26.10;99.90
7646;DHT22;3864;48.180;14.178;2023-07-20T10:24:31;25.90;99.90
7646;DHT22;3864;48.180;14.178;2023-07-20T10:27:00;26.00;99.90
7646;DHT22;3864;48.180;14.178;2023-07-20T10:29:29;25.50;99.90
7646;DHT22;3864;48.180;14.178;2023-07-20T10:31:57;25.40;99.90
7646;DHT22;3864;48.180;14.178;2023-07-20T10:34:26;25.60;99.90
7646;DHT22;3864;48.180;14.178;2023-07-20T10:36:54;25.40;99.90
7646;DHT22;3864;48.180;14.178;2023-07-20T10:39:25;25.10;99.90
7646;DHT22;3864;48.180;14.178;2023-07-20T10:42:00;25.30;99.90
7646;DHT22;3864;48.180;14.178;2023-07-20T10:44:29;25.10;99.90
7646;DHT22;3864;48.180;14.178;2023-07-20T10:47:00;25.10;99.90
7646;DHT22;3864;48.180;14.178;2023-07-20T10:49:33;25.50;99.90
7646;DHT22;3864;48.180;14.178;2023-07-20T10:52:04;25.70;99.90
7646;DHT22;3864;48.180;14.178;2023-07-20T10:54:46;25.90;99.90
7646;DHT22;3864;48.180;14.178;2023-07-20T10:57:29;26.40;99.90
7646;DHT22;3864;48.180;14.178;2023-07-20T11:00:18;26.70;99.90
7646;DHT22;3864;48.180;14.178;2023-07-20T11:02:49;27.00;99.90
7646;DHT22;3864;48.180;14.178;2023-07-20T11:05:35;26.80;99.90
7646;DHT22;3864;48.180;14.178;2023-07-20T11:08:04;26.90;99.90
7646;DHT22;3864;48.180;14.178;2023-07-20T11:10:32;26.80;99.90
7646;DHT22;3864;48.180;14.178;2023-07-20T11:13:19;26.70;99.90
7646;DHT22;3864;48.180;14.178;2023-07-20T11:16:01;26.40;99.90
7646;DHT22;3864;48.180;14.178;2023-07-20T11:18:29;26.70;99.90
7646;DHT22;3864;48.180;14.178;2023-07-20T11:20:58;26.50;99.90
7646;DHT22;3864;48.180;14.178;2023-07-20T11:23:26;26.70;99.90
7646;DHT22;3864;48.180;14.178;2023-07-20T11:25:53;26.80;99.90
7646;DHT22;3864;48.180;14.178;2023-07-20T11:28:20;26.10;99.90
7646;DHT22;3864;48.180;14.178;2023-07-20T11:30:52;25.60;99.90
7646;DHT22;3864;48.180;14.178;2023-07-20T11:33:20;25.70;99.90
7646;DHT22;3864;48.180;14.178;2023-07-20T11:35:49;25.50;99.90
7646;DHT22;3864;48.180;14.178;2023-07-20T11:38:19;25.50;99.90
7646;DHT22;3864;48.180;14.178;2023-07-20T11:40:47;25.80;99.90
7646;DHT22;3864;48.180;14.178;2023-07-20T11:43:15;25.50;99.90
7646;DHT22;3864;48.180;14.178;2023-07-20T11:45:42;25.60;99.90
7646;DHT22;3864;48.180;14.178;2023-07-20T11:48:14;25.50;99.90
7646;DHT22;3864;48.180;14.178;2023-07-20T11:50:42;25.40;99.90
7646;DHT22;3864;48.180;14.178;2023-07-20T11:53:09;25.10;99.90
7646;DHT22;3864;48.180;14.178;2023-07-20T11:55:40;25.20;99.90
7646;DHT22;3864;48.180;14.178;2023-07-20T11:58:08;25.20;99.90
7646;DHT22;3864;48.180;14.178;2023-07-20T12:00:37;25.60;99.90
7646;DHT22;3864;48.180;14.178;2023-07-20T12:03:06;25.60;99.90
7646;DHT22;3864;48.180;14.178;2023-07-20T12:05:34;25.60;99.90
7646;DHT22;3864;48.180;14.178;2023-07-20T12:08:03;25.80;99.50
7646;DHT22;3864;48.180;14.178;2023-07-20T12:10:31;25.90;99.90
7646;DHT22;3864;48.180;14.178;2023-07-20T12:13:03;25.70;99.30
7646;DHT22;3864;48.180;14.178;2023-07-20T12:15:30;26.00;99.90
7646;DHT22;3864;48.180;14.178;2023-07-20T12:17:59;26.00;99.90
7646;DHT22;3864;48.180;14.178;2023-07-20T12:20:28;25.80;99.90
7646;DHT22;3864;48.180;14.178;2023-07-20T12:22:58;25.50;99.90
7646;DHT22;3864;48.180;14.178;2023-07-20T12:25:39;25.30;99.90
7646;DHT22;3864;48.180;14.178;2023-07-20T12:28:10;25.90;99.90
7646;DHT22;3864;48.180;14.178;2023-07-20T12:30:37;25.90;99.50
7646;DHT22;3864;48.180;14.178;2023-07-20T12:33:05;25.90;99.90
7646;DHT22;3864;48.180;14.178;2023-07-20T12:35:33;25.80;99.90
7646;DHT22;3864;48.180;14.178;2023-07-20T12:38:00;26.00;99.90
7646;DHT22;3864;48.180;14.178;2023-07-20T12:40:28;26.20;99.90
7646;DHT22;3864;48.180;14.178;2023-07-20T12:42:56;26.00;99.90
7646;DHT22;3864;48.180;14.178;2023-07-20T12:45:25;25.90;99.70
7646;DHT22;3864;48.180;14.178;2023-07-20T12:47:53;25.90;99.20
7646;DHT22;3864;48.180;14.178;2023-07-20T12:50:20;26.20;98.70
7646;DHT22;3864;48.180;14.178;2023-07-20T12:52:47;26.70;98.80
7646;DHT22;3864;48.180;14.178;2023-07-20T12:55:15;26.80;99.40
7646;DHT22;3864;48.180;14.178;2023-07-20T12:57:43;27.40;99.80
7646;DHT22;3864;48.180;14.178;2023-07-20T13:00:11;28.20;99.40
7646;DHT22;3864;48.180;14.178;2023-07-20T13:02:40;28.60;99.70
7646;DHT22;3864;48.180;14.178;2023-07-20T13:05:08;28.40;99.50
7646;DHT22;3864;48.180;14.178;2023-07-20T13:07:37;28.10;99.90
7646;DHT22;3864;48.180;14.178;2023-07-20T13:10:05;27.90;99.90
7646;DHT22;3864;48.180;14.178;2023-07-20T13:12:34;27.60;99.90
7646;DHT22;3864;48.180;14.178;2023-07-20T13:15:03;27.50;99.90
7646;DHT22;3864;48.180;14.178;2023-07-20T13:17:31;27.40;99.90
7646;DHT22;3864;48.180;14.178;2023-07-20T13:20:00;27.20;99.90
7646;DHT22;3864;48.180;14.178;2023-07-20T13:22:30;27.20;99.90
7646;DHT22;3864;48.180;14.178;2023-07-20T13:24:57;27.90;99.60
7646;DHT22;3864;48.180;14.178;2023-07-20T13:27:24;28.10;97.00
7646;DHT22;3864;48.180;14.178;2023-07-20T13:29:52;28.70;98.40
7646;DHT22;3864;48.180;14.178;2023-07-20T13:32:20;29.40;99.90
7646;DHT22;3864;48.180;14.178;2023-07-20T13:34:47;29.60;99.90
7646;DHT22;3864;48.180;14.178;2023-07-20T13:37:16;29.50;97.30
7646;DHT22;3864;48.180;14.178;2023-07-20T13:39:43;29.60;99.50
7646;DHT22;3864;48.180;14.178;2023-07-20T13:42:11;29.70;99.20
7646;DHT22;3864;48.180;14.178;2023-07-20T13:44:39;29.50;97.30
7646;DHT22;3864;48.180;14.178;2023-07-20T13:47:06;29.30;96.30
7646;DHT22;3864;48.180;14.178;2023-07-20T13:49:33;28.10;94.30
7646;DHT22;3864;48.180;14.178;2023-07-20T13:52:01;27.90;95.70
7646;DHT22;3864;48.180;14.178;2023-07-20T13:54:29;27.90;95.90
7646;DHT22;3864;48.180;14.178;2023-07-20T13:56:57;28.40;97.50
7646;DHT22;3864;48.180;14.178;2023-07-20T13:59:24;29.00;97.40
7646;DHT22;3864;48.180;14.178;2023-07-20T14:01:52;29.30;96.00
7646;DHT22;3864;48.180;14.178;2023-07-20T14:04:19;28.80;96.30
7646;DHT22;3864;48.180;14.178;2023-07-20T14:06:47;28.20;96.90
7646;DHT22;3864;48.180;14.178;2023-07-20T14:09:14;28.00;99.90
7646;DHT22;3864;48.180;14.178;2023-07-20T14:11:43;28.50;99.90
7646;DHT22;3864;48.180;14.178;2023-07-20T14:14:11;29.20;99.40
7646;DHT22;3864;48.180;14.178;2023-07-20T14:16:38;29.50;97.20
7646;DHT22;3864;48.180;14.178;2023-07-20T14:19:05;29.50;96.50
7646;DHT22;3864;48.180;14.178;2023-07-20T14:21:32;29.90;94.80
7646;DHT22;3864;48.180;14.178;2023-07-20T14:24:00;29.60;94.00
7646;DHT22;3864;48.180;14.178;2023-07-20T14:26:27;29.60;95.30
7646;DHT22;3864;48.180;14.178;2023-07-20T14:28:56;29.60;96.80
7646;DHT22;3864;48.180;14.178;2023-07-20T14:31:23;29.60;96.30
7646;DHT22;3864;48.180;14.178;2023-07-20T14:33:51;29.20;97.00
7646;DHT22;3864;48.180;14.178;2023-07-20T14:36:19;28.60;95.00
7646;DHT22;3864;48.180;14.178;2023-07-20T14:38:46;28.20;94.70
7646;DHT22;3864;48.180;14.178;2023-07-20T14:41:13;27.40;96.20
7646;DHT22;3864;48.180;14.178;2023-07-20T14:43:41;27.20;95.80
7646;DHT22;3864;48.180;14.178;2023-07-20T14:46:10;27.40;95.30
7646;DHT22;3864;48.180;14.178;2023-07-20T14:48:37;27.50;95.40
7646;DHT22;3864;48.180;14.178;2023-07-20T14:51:04;27.30;95.60
7646;DHT22;3864;48.180;14.178;2023-07-20T14:53:32;26.80;95.40
7646;DHT22;3864;48.180;14.178;2023-07-20T14:56:00;26.70;98.00
7646;DHT22;3864;48.180;14.178;2023-07-20T14:58:27;26.40;97.00
7646;DHT22;3864;48.180;14.178;2023-07-20T15:00:55;26.30;98.90
7646;DHT22;3864;48.180;14.178;2023-07-20T15:03:24;26.70;97.60
7646;DHT22;3864;48.180;14.178;2023-07-20T15:05:51;27.50;95.10
7646;DHT22;3864;48.180;14.178;2023-07-20T15:08:18;28.40;95.00
7646;DHT22;3864;48.180;14.178;2023-07-20T15:10:47;29.30;93.80
7646;DHT22;3864;48.180;14.178;2023-07-20T15:13:15;29.60;94.70
7646;DHT22;3864;48.180;14.178;2023-07-20T15:15:42;29.90;93.10
7646;DHT22;3864;48.180;14.178;2023-07-20T15:18:10;29.70;94.00
7646;DHT22;3864;48.180;14.178;2023-07-20T15:20:38;29.70;94.30
7646;DHT22;3864;48.180;14.178;2023-07-20T15:23:06;29.70;95.70
7646;DHT22;3864;48.180;14.178;2023-07-20T15:25:33;30.10;96.10
7646;DHT22;3864;48.180;14.178;2023-07-20T15:28:00;29.70;94.90
7646;DHT22;3864;48.180;14.178;2023-07-20T15:30:28;29.70;96.70
7646;DHT22;3864;48.180;14.178;2023-07-20T15:32:55;29.10;96.90
7646;DHT22;3864;48.180;14.178;2023-07-20T15:35:22;29.10;93.80
7646;DHT22;3864;48.180;14.178;2023-07-20T15:37:51;29.20;93.40
7646;DHT22;3864;48.180;14.178;2023-07-20T15:40:19;29.50;93.00
7646;DHT22;3864;48.180;14.178;2023-07-20T15:42:47;29.80;93.20
7646;DHT22;3864;48.180;14.178;2023-07-20T15:45:15;29.50;93.70
7646;DHT22;3864;48.180;14.178;2023-07-20T15:47:42;29.00;93.80
7646;DHT22;3864;48.180;14.178;2023-07-20T15:50:11;28.90;94.00
7646;DHT22;3864;48.180;14.178;2023-07-20T15:52:38;28.70;92.90
7646;DHT22;3864;48.180;14.178;2023-07-20T15:55:10;28.80;93.00